Time;durP1;ratioP1;P1;durP2;ratioP2;P2;SDS_P1;SDS_P2;PMS_P1;PMS_P2;Temp;Humidity;BMP_temperature;BMP_pressure;BME280_temperature;BME280_humidity;BME280_pressure;Samples;Min_cycle;Max_cycle;Signal;HPM_P1;HPM_P2
2023/05/16 00:00:47;;;;;;;13.27;11.68;;;14.00;97.90;;;;;;5012448;28;20080;-50
2023/05/16 00:03:33;;;;;;;17.55;12.50;;;14.00;98.00;;;;;;5013115;28;20018;-51
2023/05/16 00:06:19;;;;;;;17.45;12.13;;;13.90;98.10;;;;;;4992813;28;20487;-53
2023/05/16 00:09:05;;;;;;;18.25;11.60;;;14.00;98.20;;;;;;4994752;28;20038;-51
2023/05/16 00:11:51;;;;;;;12.68;11.38;;;13.90;98.20;;;;;;4994229;28;20058;-52
2023/05/16 00:14:37;;;;;;;15.32;12.63;;;13.90;98.20;;;;;;5011894;28;20140;-51
2023/05/16 00:17:27;;;;;;;14.02;12.63;;;13.80;98.20;;;;;;5012819;28;20161;-50
2023/05/16 00:20:16;;;;;;;14.95;12.07;;;13.80;98.30;;;;;;5013169;28;20034;-51
2023/05/16 00:23:02;;;;;;;14.90;11.85;;;13.70;98.60;;;;;;5012150;28;20079;-52
2023/05/16 00:25:48;;;;;;;15.18;12.25;;;13.60;98.80;;;;;;5012118;28;20408;-54
2023/05/16 00:28:34;;;;;;;14.38;11.98;;;13.60;99.00;;;;;;5011210;28;20093;-50
2023/05/16 00:31:21;;;;;;;16.17;12.57;;;13.50;99.20;;;;;;5011315;28;20030;-49
2023/05/16 00:34:07;;;;;;;14.10;11.82;;;13.50;98.90;;;;;;5012592;28;20095;-49
2023/05/16 00:36:53;;;;;;;14.43;12.10;;;13.50;98.80;;;;;;5013034;28;20026;-48
2023/05/16 00:39:39;;;;;;;13.45;11.45;;;13.30;98.80;;;;;;5012637;28;20030;-49
2023/05/16 00:42:26;;;;;;;16.23;11.93;;;13.30;99.10;;;;;;4992351;28;20042;-47
2023/05/16 00:45:12;;;;;;;13.63;11.85;;;13.30;98.80;;;;;;4993551;28;20058;-47
2023/05/16 00:47:57;;;;;;;14.57;11.48;;;13.30;98.30;;;;;;4991237;28;20109;-49
2023/05/16 00:50:43;;;;;;;13.35;11.35;;;13.10;98.30;;;;;;4994355;28;20093;-50
2023/05/16 00:53:29;;;;;;;12.23;11.02;;;13.10;97.90;;;;;;4998690;28;20042;-56
2023/05/16 00:56:17;;;;;;;13.18;11.93;;;13.00;97.90;;;;;;5020777;28;20026;-59
2023/05/16 00:59:03;;;;;;;14.07;12.10;;;12.90;97.60;;;;;;5024718;28;20037;-51
2023/05/16 01:01:50;;;;;;;13.85;12.27;;;12.80;98.10;;;;;;5025439;28;20304;-50
2023/05/16 01:04:36;;;;;;;18.08;13.15;;;12.60;98.20;;;;;;5013345;28;20033;-49
2023/05/16 01:07:22;;;;;;;15.00;12.73;;;12.70;98.20;;;;;;5010659;28;20026;-49
2023/05/16 01:10:08;;;;;;;17.10;13.98;;;12.60;98.40;;;;;;4997695;28;20549;-48
2023/05/16 01:13:33;;;;;;;17.55;14.27;;;12.50;98.50;;;;;;4993043;28;20503;-49
2023/05/16 01:16:29;;;;;;;18.20;15.30;;;12.30;99.20;;;;;;4991292;28;20042;-53
2023/05/16 01:19:34;;;;;;;18.88;15.65;;;12.20;99.70;;;;;;4992788;28;20022;-50
2023/05/16 01:22:41;;;;;;;22.83;17.42;;;12.30;99.70;;;;;;4991801;28;20031;-51
2023/05/16 01:25:57;;;;;;;20.42;17.63;;;12.10;99.90;;;;;;4996538;28;20035;-49
2023/05/16 01:28:46;;;;;;;20.67;18.50;;;12.10;99.90;;;;;;4997708;28;20026;-49
2023/05/16 01:31:32;;;;;;;22.38;17.45;;;12.10;99.90;;;;;;5015490;28;20394;-49
2023/05/16 01:34:18;;;;;;;20.70;18.50;;;12.10;99.90;;;;;;5016129;28;20439;-51
2023/05/16 01:37:11;;;;;;;20.30;18.17;;;12.10;99.90;;;;;;5015350;28;20034;-54
2023/05/16 01:40:24;;;;;;;26.13;21.00;;;12.10;99.90;;;;;;5015409;28;20553;-52
2023/05/16 01:43:14;;;;;;;27.35;23.13;;;11.80;99.90;;;;;;5015059;28;20427;-49
2023/05/16 01:46:08;;;;;;;26.10;23.42;;;11.50;99.90;;;;;;5013667;28;20030;-49
2023/05/16 01:49:23;;;;;;;28.60;25.10;;;11.40;99.90;;;;;;5014816;28;20026;-47
2023/05/16 01:52:17;;;;;;;27.10;24.13;;;11.40;99.90;;;;;;5015040;28;20486;-51
2023/05/16 01:55:06;;;;;;;26.48;23.73;;;11.40;99.90;;;;;;5016339;28;20026;-49
2023/05/16 01:57:53;;;;;;;27.83;24.50;;;11.40;99.90;;;;;;5014777;28;20038;-49
2023/05/16 02:00:39;;;;;;;27.02;23.55;;;11.50;99.90;;;;;;5015260;28;20681;-47
2023/05/16 02:03:25;;;;;;;28.40;25.42;;;11.40;99.90;;;;;;5015263;28;20030;-51
2023/05/16 02:06:11;;;;;;;29.88;26.27;;;11.40;99.90;;;;;;5014569;28;20061;-49
2023/05/16 02:08:57;;;;;;;30.38;25.85;;;11.40;99.90;;;;;;5015425;28;20076;-52
2023/05/16 02:11:43;;;;;;;29.95;25.63;;;11.20;99.90;;;;;;5014445;28;20049;-50
2023/05/16 02:14:29;;;;;;;29.73;26.33;;;11.10;99.90;;;;;;5016026;28;20108;-52
2023/05/16 02:17:15;;;;;;;31.95;27.77;;;11.00;99.90;;;;;;5016191;28;20068;-54
2023/05/16 02:20:05;;;;;;;30.63;27.45;;;11.10;99.90;;;;;;5018189;28;20531;-56
2023/05/16 02:22:51;;;;;;;33.05;27.67;;;10.90;99.90;;;;;;4995456;28;20037;-54
2023/05/16 02:25:37;;;;;;;32.08;27.67;;;10.80;99.90;;;;;;4995751;28;20092;-55
2023/05/16 02:28:23;;;;;;;33.03;28.10;;;10.70;99.90;;;;;;5007791;28;20065;-56
2023/05/16 02:31:09;;;;;;;33.92;28.73;;;10.70;99.90;;;;;;5009470;28;20039;-55
2023/05/16 02:33:57;;;;;;;35.38;29.83;;;10.60;99.90;;;;;;5013197;28;20030;-55
2023/05/16 02:36:43;;;;;;;31.40;27.23;;;10.70;99.90;;;;;;5013369;28;20084;-54
2023/05/16 02:39:29;;;;;;;31.70;28.27;;;10.70;99.90;;;;;;5014959;28;20034;-56
2023/05/16 02:42:15;;;;;;;35.97;29.65;;;10.60;99.90;;;;;;5013701;28;20026;-56
2023/05/16 02:45:01;;;;;;;35.60;27.23;;;10.60;99.90;;;;;;5014810;28;20033;-56
2023/05/16 02:47:47;;;;;;;32.22;28.25;;;10.70;99.90;;;;;;5013453;28;20022;-55
2023/05/16 02:50:33;;;;;;;29.58;26.23;;;10.60;99.90;;;;;;5014690;28;20033;-54
2023/05/16 02:53:19;;;;;;;32.05;27.08;;;10.50;99.90;;;;;;5014400;28;20402;-57
2023/05/16 02:56:05;;;;;;;33.78;27.50;;;10.40;99.90;;;;;;5014072;28;20427;-57
2023/05/16 02:58:53;;;;;;;33.78;26.63;;;10.50;99.90;;;;;;5014527;28;20041;-54
2023/05/16 03:01:39;;;;;;;33.30;28.63;;;10.50;99.90;;;;;;5013272;28;20037;-57
2023/05/16 03:04:25;;;;;;;35.90;27.30;;;10.40;99.90;;;;;;5013355;28;20187;-54
2023/05/16 03:07:11;;;;;;;33.08;27.08;;;10.40;99.90;;;;;;5012914;28;20022;-55
2023/05/16 03:09:57;;;;;;;30.35;26.48;;;10.40;99.90;;;;;;5014486;28;20030;-51
2023/05/16 03:12:43;;;;;;;30.00;26.35;;;10.30;99.90;;;;;;5013950;28;20064;-52
2023/05/16 03:15:29;;;;;;;32.58;25.70;;;10.40;99.90;;;;;;5013912;28;20034;-52
2023/05/16 03:18:15;;;;;;;30.17;26.08;;;10.50;99.90;;;;;;5012426;28;20041;-51
2023/05/16 03:21:01;;;;;;;32.80;27.05;;;10.50;99.90;;;;;;5011785;28;20038;-52
2023/05/16 03:23:48;;;;;;;32.60;27.80;;;10.40;99.90;;;;;;5013114;28;20542;-52
2023/05/16 03:26:34;;;;;;;30.45;24.83;;;10.60;99.90;;;;;;5012255;28;20479;-52
2023/05/16 03:29:20;;;;;;;30.92;25.75;;;10.70;99.90;;;;;;5013278;28;20033;-52
2023/05/16 03:32:06;;;;;;;32.25;26.33;;;10.60;99.90;;;;;;5012030;28;20034;-51
2023/05/16 03:34:52;;;;;;;31.55;26.15;;;10.60;99.90;;;;;;5013925;28;20037;-49
2023/05/16 03:37:38;;;;;;;29.23;25.88;;;10.60;99.90;;;;;;5012084;28;20531;-51
2023/05/16 03:40:24;;;;;;;30.45;24.45;;;10.60;99.90;;;;;;5013540;28;20033;-51
2023/05/16 03:43:10;;;;;;;28.92;25.05;;;10.50;99.90;;;;;;5012334;28;20072;-49
2023/05/16 03:45:56;;;;;;;29.42;24.83;;;10.40;99.90;;;;;;5012721;28;20030;-55
2023/05/16 03:48:42;;;;;;;30.20;25.58;;;10.40;99.90;;;;;;5013120;28;20096;-52
2023/05/16 03:51:29;;;;;;;29.33;25.75;;;10.40;99.90;;;;;;5012243;28;20038;-52
2023/05/16 03:54:15;;;;;;;29.20;25.08;;;10.50;99.90;;;;;;5012704;28;20033;-50
2023/05/16 03:57:01;;;;;;;28.92;24.73;;;10.50;99.90;;;;;;5013156;28;20517;-52
2023/05/16 03:59:47;;;;;;;29.80;24.55;;;10.40;99.90;;;;;;5012747;28;20052;-50
2023/05/16 04:02:33;;;;;;;29.85;25.13;;;10.40;99.90;;;;;;5013338;28;20117;-52
2023/05/16 04:05:19;;;;;;;29.05;24.45;;;10.60;99.90;;;;;;5012318;28;20026;-52
2023/05/16 04:08:05;;;;;;;27.70;23.58;;;10.50;99.90;;;;;;5012931;28;20029;-52
2023/05/16 04:10:51;;;;;;;26.10;22.63;;;10.50;99.90;;;;;;5008137;28;20522;-55
2023/05/16 04:13:37;;;;;;;29.13;23.92;;;10.60;99.90;;;;;;4993784;28;20022;-52
2023/05/16 04:16:23;;;;;;;30.95;22.83;;;10.70;99.90;;;;;;5001183;28;20083;-54
2023/05/16 04:19:09;;;;;;;26.00;22.65;;;10.60;99.90;;;;;;5013652;28;20101;-55
2023/05/16 04:21:55;;;;;;;25.23;22.50;;;10.70;99.90;;;;;;5011671;28;20041;-54
2023/05/16 04:24:41;;;;;;;25.73;22.05;;;10.70;99.90;;;;;;5010659;28;20037;-53
2023/05/16 04:27:27;;;;;;;30.48;23.40;;;10.60;99.90;;;;;;5012925;28;20037;-52
2023/05/16 04:30:13;;;;;;;27.55;22.65;;;10.60;99.90;;;;;;5013050;28;20036;-52
2023/05/16 04:33:30;;;;;;;28.00;23.15;;;10.70;99.90;;;;;;5013133;28;20038;-51
2023/05/16 04:36:16;;;;;;;28.15;22.90;;;10.70;99.90;;;;;;4993581;28;20065;-48
2023/05/16 04:39:02;;;;;;;26.13;22.10;;;10.90;99.90;;;;;;5005909;28;20041;-47
2023/05/16 04:41:48;;;;;;;24.90;22.23;;;10.90;99.90;;;;;;5012459;28;20176;-50
2023/05/16 04:44:35;;;;;;;24.27;21.67;;;10.90;99.90;;;;;;5012634;28;20402;-48
2023/05/16 04:47:52;;;;;;;25.20;21.80;;;10.90;99.90;;;;;;5013348;28;20087;-51
2023/05/16 04:50:37;;;;;;;22.20;19.88;;;10.90;99.90;;;;;;4995897;28;20030;-48
2023/05/16 04:53:34;;;;;;;23.85;20.10;;;11.00;99.90;;;;;;5006858;28;20042;-48
2023/05/16 04:56:21;;;;;;;23.85;19.33;;;10.90;99.90;;;;;;5003156;28;20382;-49
2023/05/16 04:59:07;;;;;;;22.25;18.98;;;11.00;99.90;;;;;;5013602;28;20113;-52
2023/05/16 05:01:53;;;;;;;21.10;17.73;;;11.00;99.90;;;;;;5012152;28;20454;-51
2023/05/16 05:04:39;;;;;;;20.70;18.05;;;11.10;99.90;;;;;;5012242;28;20026;-48
2023/05/16 05:07:27;;;;;;;20.00;17.17;;;11.10;99.90;;;;;;5012198;28;20049;-48
2023/05/16 05:10:14;;;;;;;22.35;16.05;;;11.10;99.90;;;;;;5010665;28;20529;-47
2023/05/16 05:13:00;;;;;;;20.52;16.35;;;11.00;99.90;;;;;;5012685;28;20405;-50
2023/05/16 05:15:51;;;;;;;18.52;16.45;;;11.00;99.90;;;;;;5014056;28;20041;-48
2023/05/16 05:18:37;;;;;;;15.50;13.90;;;11.20;99.90;;;;;;5012188;28;20513;-52
2023/05/16 05:21:24;;;;;;;17.00;13.70;;;11.30;99.90;;;;;;5011130;28;20418;-52
2023/05/16 05:24:10;;;;;;;18.90;14.13;;;11.10;99.90;;;;;;5010860;28;20026;-51
2023/05/16 05:26:56;;;;;;;17.65;12.05;;;11.20;99.90;;;;;;5011520;28;20041;-47
2023/05/16 05:29:42;;;;;;;14.45;11.80;;;11.30;99.90;;;;;;5010339;28;20033;-49
2023/05/16 05:32:28;;;;;;;15.50;11.80;;;11.20;99.90;;;;;;5012479;28;20413;-48
2023/05/16 05:35:14;;;;;;;16.38;12.25;;;11.10;99.90;;;;;;5010717;28;20026;-48
2023/05/16 05:38:01;;;;;;;13.57;11.13;;;11.30;99.90;;;;;;5012100;28;20513;-47
2023/05/16 05:40:48;;;;;;;13.23;10.70;;;11.40;99.90;;;;;;5010822;28;20088;-46
2023/05/16 05:43:34;;;;;;;14.27;10.98;;;11.30;99.90;;;;;;5010794;28;20034;-47
2023/05/16 05:46:20;;;;;;;16.85;10.90;;;11.30;99.90;;;;;;5010520;28;20105;-49
2023/05/16 05:49:06;;;;;;;11.43;10.05;;;11.40;99.90;;;;;;5011375;28;20030;-48
2023/05/16 05:51:53;;;;;;;22.05;11.20;;;11.40;99.90;;;;;;4992152;28;20057;-49
2023/05/16 05:54:39;;;;;;;11.95;10.73;;;11.40;99.90;;;;;;4992593;28;20108;-48
2023/05/16 05:57:25;;;;;;;14.75;10.75;;;11.50;99.90;;;;;;4992570;28;20113;-48
2023/05/16 06:00:11;;;;;;;12.40;9.88;;;11.50;99.90;;;;;;4993322;28;20023;-49
2023/05/16 06:03:06;;;;;;;13.07;11.30;;;11.50;99.90;;;;;;4992659;28;20030;-48
2023/05/16 06:05:52;;;;;;;13.43;11.25;;;11.40;99.90;;;;;;5008801;28;20048;-50
2023/05/16 06:08:37;;;;;;;13.27;11.15;;;11.30;99.90;;;;;;5013839;28;20218;-48
2023/05/16 06:11:26;;;;;;;14.52;8.90;;;11.30;99.90;;;;;;5014979;28;20022;-47
2023/05/16 06:14:15;;;;;;;10.32;7.68;;;11.30;99.90;;;;;;5014622;28;20537;-50
2023/05/16 06:17:00;;;;;;;10.60;7.20;;;11.30;99.90;;;;;;5014259;28;20072;-50
2023/05/16 06:19:47;;;;;;;10.70;6.63;;;11.20;99.90;;;;;;4995184;28;20034;-52
2023/05/16 06:22:32;;;;;;;9.80;6.35;;;11.10;99.90;;;;;;4995980;28;20495;-52
2023/05/16 06:25:19;;;;;;;10.25;6.88;;;11.10;99.90;;;;;;4995523;28;20545;-51
2023/05/16 06:28:04;;;;;;;9.25;6.45;;;11.00;99.90;;;;;;4998565;28;20044;-55
2023/05/16 06:30:50;;;;;;;7.90;6.25;;;11.10;99.90;;;;;;5005907;28;20068;-52
2023/05/16 06:33:36;;;;;;;9.07;6.57;;;11.20;99.90;;;;;;5020396;28;20034;-51
2023/05/16 06:36:22;;;;;;;9.68;6.72;;;11.30;99.90;;;;;;5022428;28;20033;-52
2023/05/16 06:39:08;;;;;;;14.50;7.28;;;11.30;99.90;;;;;;5020426;28;20030;-49
2023/05/16 06:41:54;;;;;;;7.10;6.07;;;11.40;99.90;;;;;;5021632;28;20044;-47
2023/05/16 06:44:40;;;;;;;10.80;5.85;;;11.60;99.90;;;;;;5016516;28;20026;-48
2023/05/16 06:47:26;;;;;;;7.75;6.25;;;11.70;99.90;;;;;;5016234;28;20029;-48
2023/05/16 06:50:12;;;;;;;10.38;6.20;;;11.80;99.90;;;;;;5014132;28;20041;-49
2023/05/16 06:52:59;;;;;;;8.05;5.78;;;11.70;99.90;;;;;;5015192;28;20034;-49
2023/05/16 06:55:46;;;;;;;9.95;6.45;;;11.70;99.90;;;;;;5014304;28;20056;-52
2023/05/16 06:58:32;;;;;;;11.02;5.95;;;11.70;99.90;;;;;;5014332;28;20042;-52
2023/05/16 07:01:18;;;;;;;8.55;6.13;;;11.80;99.90;;;;;;5013925;28;20038;-50
2023/05/16 07:04:04;;;;;;;11.13;6.28;;;11.80;99.90;;;;;;5014255;28;20034;-50
2023/05/16 07:06:50;;;;;;;7.72;5.63;;;11.80;99.90;;;;;;5012753;28;20113;-53
2023/05/16 07:09:36;;;;;;;7.15;5.65;;;11.70;99.90;;;;;;5013978;28;20026;-51
2023/05/16 07:12:22;;;;;;;7.38;5.55;;;11.80;99.90;;;;;;5014185;28;20140;-48
2023/05/16 07:15:09;;;;;;;9.30;5.22;;;11.90;99.90;;;;;;5012600;28;20029;-49
2023/05/16 07:17:55;;;;;;;6.50;5.25;;;12.00;99.90;;;;;;5012703;28;20402;-48
2023/05/16 07:20:41;;;;;;;8.20;4.95;;;12.00;99.90;;;;;;4993816;28;20411;-51
2023/05/16 07:23:27;;;;;;;7.88;5.05;;;12.00;99.90;;;;;;4994372;28;20109;-49
2023/05/16 07:26:13;;;;;;;9.32;5.13;;;11.90;99.90;;;;;;4994115;28;20052;-47
2023/05/16 07:29:01;;;;;;;6.82;5.03;;;11.90;99.90;;;;;;4993021;28;20518;-48
2023/05/16 07:31:47;;;;;;;5.78;4.57;;;12.00;99.90;;;;;;4993840;28;20038;-51
2023/05/16 07:34:33;;;;;;;5.03;4.38;;;12.10;99.90;;;;;;4997613;28;20037;-49
2023/05/16 07:37:19;;;;;;;5.90;4.03;;;12.00;99.90;;;;;;5013228;28;20038;-53
2023/05/16 07:40:06;;;;;;;5.03;3.80;;;12.10;99.90;;;;;;5012126;28;20033;-50
2023/05/16 07:42:52;;;;;;;7.05;4.13;;;12.00;99.90;;;;;;5013040;28;20407;-52
2023/05/16 07:45:39;;;;;;;7.80;4.05;;;12.00;99.90;;;;;;5011573;28;20034;-51
2023/05/16 07:48:25;;;;;;;6.35;3.83;;;12.10;99.90;;;;;;5013305;28;20035;-52
2023/05/16 07:51:11;;;;;;;5.43;3.45;;;12.00;99.90;;;;;;5012139;28;20026;-54
2023/05/16 07:53:57;;;;;;;5.28;3.42;;;11.90;99.90;;;;;;5012947;28;20026;-51
2023/05/16 07:56:43;;;;;;;7.03;3.08;;;11.90;99.90;;;;;;5011689;28;20038;-52
2023/05/16 07:59:29;;;;;;;5.65;3.10;;;11.80;99.90;;;;;;5013569;28;20677;-50
2023/05/16 08:02:15;;;;;;;4.45;2.90;;;11.70;99.90;;;;;;5013144;28;20048;-53
2023/05/16 08:05:05;;;;;;;4.28;3.08;;;11.90;99.90;;;;;;5014911;28;20461;-50
2023/05/16 08:07:55;;;;;;;4.57;3.10;;;12.00;99.90;;;;;;5013088;28;20061;-51
2023/05/16 08:10:40;;;;;;;7.28;3.00;;;12.20;99.90;;;;;;5012869;28;20583;-49
2023/05/16 08:13:30;;;;;;;5.70;3.00;;;12.20;99.90;;;;;;5013397;28;20073;-51
2023/05/16 08:16:16;;;;;;;4.22;2.40;;;12.40;99.90;;;;;;5012881;28;20565;-49
2023/05/16 08:19:02;;;;;;;4.68;2.70;;;12.40;99.90;;;;;;5012311;28;20108;-51
2023/05/16 08:21:48;;;;;;;3.90;2.30;;;12.40;99.90;;;;;;4993745;28;20053;-53
2023/05/16 08:24:34;;;;;;;4.43;2.60;;;12.40;99.90;;;;;;4994771;28;20514;-53
2023/05/16 08:27:20;;;;;;;4.82;2.53;;;12.30;99.90;;;;;;4993798;28;20102;-51
2023/05/16 08:30:07;;;;;;;5.45;2.85;;;12.40;99.90;;;;;;4993933;28;20022;-52
2023/05/16 08:32:53;;;;;;;3.97;2.20;;;12.40;99.90;;;;;;4999432;28;20113;-51
2023/05/16 08:35:43;;;;;;;4.20;2.17;;;12.30;99.90;;;;;;5012601;28;20026;-51
2023/05/16 08:38:29;;;;;;;6.38;2.70;;;12.20;99.90;;;;;;5007232;28;20118;-52
2023/05/16 08:41:15;;;;;;;5.00;2.80;;;12.50;99.90;;;;;;5004596;28;20026;-49
2023/05/16 08:44:01;;;;;;;4.97;2.30;;;12.50;99.90;;;;;;5029846;28;20063;-49
2023/05/16 08:46:54;;;;;;;6.35;2.80;;;12.50;99.90;;;;;;5032049;28;20029;-52
2023/05/16 08:49:41;;;;;;;4.15;2.50;;;12.50;99.90;;;;;;5004916;28;20121;-51
2023/05/16 08:52:30;;;;;;;4.95;2.92;;;12.50;99.90;;;;;;5013740;28;20678;-52
2023/05/16 08:55:18;;;;;;;5.03;2.65;;;12.60;99.90;;;;;;5011217;28;20037;-46
2023/05/16 08:58:04;;;;;;;7.10;2.90;;;12.50;99.90;;;;;;4999412;28;20045;-50
2023/05/16 09:00:50;;;;;;;4.53;2.83;;;12.50;99.90;;;;;;4997660;28;20034;-49
2023/05/16 09:03:37;;;;;;;5.45;3.58;;;12.60;99.90;;;;;;5009831;28;20403;-52
2023/05/16 09:06:26;;;;;;;8.38;3.22;;;12.70;99.90;;;;;;5007983;28;20525;-53
2023/05/16 09:09:12;;;;;;;6.30;3.38;;;12.50;99.90;;;;;;5030168;28;20021;-54
2023/05/16 09:11:59;;;;;;;7.40;3.88;;;12.20;99.90;;;;;;5023138;28;20037;-52
2023/05/16 09:14:46;;;;;;;10.68;3.70;;;12.10;99.90;;;;;;5011498;28;20407;-52
2023/05/16 09:17:40;;;;;;;5.38;3.72;;;12.10;99.90;;;;;;5007601;28;20094;-51
2023/05/16 09:20:26;;;;;;;10.32;4.03;;;12.10;99.90;;;;;;5009199;28;20087;-54
2023/05/16 09:23:12;;;;;;;8.10;4.45;;;12.10;99.90;;;;;;4999917;28;20030;-50
2023/05/16 09:25:58;;;;;;;5.85;3.65;;;12.20;99.90;;;;;;5023964;28;20057;-51
2023/05/16 09:28:44;;;;;;;4.80;4.18;;;12.30;99.90;;;;;;5024132;28;20030;-53
2023/05/16 09:31:36;;;;;;;8.48;4.40;;;12.40;99.90;;;;;;5009799;28;20053;-53
2023/05/16 09:34:22;;;;;;;6.47;4.63;;;12.60;99.90;;;;;;5011829;28;20105;-50
2023/05/16 09:37:10;;;;;;;8.25;3.78;;;12.60;99.90;;;;;;5012927;28;20099;-51
2023/05/16 09:39:56;;;;;;;10.25;4.63;;;12.60;99.90;;;;;;5030984;28;20072;-52
2023/05/16 09:42:45;;;;;;;10.50;4.97;;;12.60;99.90;;;;;;5012017;28;20022;-56
2023/05/16 09:45:32;;;;;;;10.02;4.82;;;12.50;99.90;;;;;;5016265;28;20026;-51
2023/05/16 09:48:20;;;;;;;9.63;4.88;;;12.40;99.90;;;;;;5034317;28;20694;-49
2023/05/16 09:51:07;;;;;;;10.15;5.43;;;12.20;99.90;;;;;;5014450;28;20072;-48
2023/05/16 09:53:53;;;;;;;9.82;5.70;;;12.20;99.90;;;;;;5014682;28;20026;-48
2023/05/16 09:56:50;;;;;;;13.48;4.75;;;12.20;99.90;;;;;;5014806;28;20120;-48
2023/05/16 09:59:37;;;;;;;10.85;5.07;;;12.20;99.90;;;;;;5013738;28;20057;-48
2023/05/16 10:02:24;;;;;;;9.75;5.22;;;12.20;99.90;;;;;;5014773;28;20034;-52
2023/05/16 10:05:10;;;;;;;13.95;6.53;;;12.20;99.90;;;;;;5015040;28;20033;-54
2023/05/16 10:07:56;;;;;;;10.43;4.45;;;12.20;99.90;;;;;;5015036;28;20034;-50
2023/05/16 10:10:43;;;;;;;12.63;4.20;;;12.20;99.90;;;;;;5013961;28;20034;-49
2023/05/16 10:13:32;;;;;;;12.80;4.28;;;12.40;99.90;;;;;;5014981;28;20109;-49
2023/05/16 10:16:20;;;;;;;12.40;4.30;;;12.30;99.90;;;;;;5014904;28;20042;-50
2023/05/16 10:19:06;;;;;;;10.35;3.90;;;12.40;99.90;;;;;;5013500;28;20022;-48
2023/05/16 10:21:59;;;;;;;7.65;3.30;;;12.50;99.50;;;;;;5014393;28;20125;-48
2023/05/16 10:25:26;;;;;;;10.52;4.47;;;12.70;98.90;;;;;;5015183;28;20025;-49
2023/05/16 10:28:13;;;;;;;8.90;3.83;;;12.80;98.80;;;;;;5015504;28;20033;-47
2023/05/16 10:31:01;;;;;;;13.75;4.13;;;12.90;98.60;;;;;;5016305;28;20037;-52
2023/05/16 10:33:48;;;;;;;15.55;4.55;;;13.10;98.80;;;;;;5017678;28;20062;-51
2023/05/16 10:36:35;;;;;;;10.98;3.90;;;13.40;98.20;;;;;;5016545;28;20045;-51
2023/05/16 10:39:21;;;;;;;10.98;4.03;;;13.50;97.40;;;;;;4998151;28;20117;-50
2023/05/16 10:42:07;;;;;;;13.20;4.53;;;13.30;97.30;;;;;;5011227;28;20569;-54
2023/05/16 10:44:55;;;;;;;14.10;4.30;;;13.10;98.00;;;;;;4994796;28;20077;-54
2023/05/16 10:47:57;;;;;;;10.63;4.00;;;13.20;97.70;;;;;;5015591;28;20457;-50
2023/05/16 10:50:45;;;;;;;9.65;3.85;;;13.20;97.20;;;;;;5017044;28;20560;-48
2023/05/16 10:53:35;;;;;;;15.15;4.40;;;13.10;97.60;;;;;;5012752;28;20457;-51
2023/05/16 10:56:26;;;;;;;11.00;4.30;;;12.80;98.00;;;;;;5012668;28;20100;-52
2023/05/16 10:59:25;;;;;;;13.40;4.10;;;12.80;98.50;;;;;;5013923;28;20084;-49
2023/05/16 11:02:24;;;;;;;10.38;4.30;;;13.00;98.30;;;;;;5012661;28;20033;-50
2023/05/16 11:05:16;;;;;;;13.63;4.10;;;13.20;97.60;;;;;;5001836;28;20514;-51
2023/05/16 11:08:04;;;;;;;14.82;4.15;;;13.30;96.50;;;;;;5013666;28;20034;-49
2023/05/16 11:11:30;;;;;;;11.95;3.90;;;13.40;96.10;;;;;;5007903;28;20033;-50
2023/05/16 11:14:23;;;;;;;13.40;4.03;;;13.50;95.40;;;;;;5014560;28;20022;-52
2023/05/16 11:17:13;;;;;;;9.77;3.83;;;13.50;95.40;;;;;;5013824;28;20053;-52
2023/05/16 11:20:02;;;;;;;10.95;3.35;;;13.60;95.70;;;;;;5013618;28;20030;-49
2023/05/16 11:22:48;;;;;;;10.30;3.17;;;13.80;93.30;;;;;;5013555;28;20072;-50
2023/05/16 11:25:39;;;;;;;8.23;3.22;;;14.00;92.30;;;;;;5012476;28;20032;-51
2023/05/16 11:28:26;;;;;;;11.07;2.97;;;13.90;92.00;;;;;;5030622;28;20422;-57
2023/05/16 11:31:12;;;;;;;11.07;3.47;;;13.70;93.00;;;;;;5026538;28;20394;-49
2023/05/16 11:33:59;;;;;;;10.43;3.63;;;13.70;92.70;;;;;;5013240;28;20050;-49
2023/05/16 11:36:45;;;;;;;8.93;3.25;;;13.60;92.20;;;;;;5013071;28;20034;-49
2023/05/16 11:39:31;;;;;;;12.40;3.35;;;13.80;92.00;;;;;;5004647;28;20092;-50
2023/05/16 11:42:17;;;;;;;10.60;3.60;;;14.00;91.70;;;;;;5013760;28;20052;-53
2023/05/16 11:45:07;;;;;;;8.63;3.35;;;14.00;91.90;;;;;;5014037;28;20023;-51
2023/05/16 11:48:02;;;;;;;14.85;3.75;;;14.10;91.10;;;;;;5013724;28;20474;-52
2023/05/16 11:50:49;;;;;;;9.38;3.05;;;14.30;91.40;;;;;;5013542;28;20403;-53
2023/05/16 11:53:36;;;;;;;8.40;3.60;;;14.00;91.30;;;;;;5012508;28;20037;-52
2023/05/16 11:56:23;;;;;;;20.85;3.92;;;14.10;91.10;;;;;;5013510;28;20049;-53
2023/05/16 11:59:10;;;;;;;11.63;3.70;;;14.20;90.80;;;;;;5011947;28;20084;-51
2023/05/16 12:01:56;;;;;;;10.88;3.72;;;14.10;89.90;;;;;;5012649;28;20053;-50
2023/05/16 12:04:45;;;;;;;14.30;4.05;;;14.20;90.50;;;;;;5013197;28;20029;-50
2023/05/16 12:07:31;;;;;;;7.28;3.47;;;14.10;90.20;;;;;;5011220;28;20576;-52
2023/05/16 12:10:17;;;;;;;10.05;3.58;;;14.00;89.10;;;;;;5000113;28;20046;-52
2023/05/16 12:13:03;;;;;;;11.73;3.92;;;14.20;90.50;;;;;;5011099;28;20022;-52
2023/05/16 12:15:51;;;;;;;15.90;4.20;;;14.50;89.70;;;;;;5012482;28;20116;-51
2023/05/16 12:18:38;;;;;;;18.77;4.53;;;14.60;90.10;;;;;;5008483;28;20026;-52
2023/05/16 12:21:24;;;;;;;10.07;3.60;;;14.50;90.30;;;;;;5010819;28;20057;-55
2023/05/16 12:24:14;;;;;;;10.10;3.58;;;14.50;89.20;;;;;;5013920;28;20367;-54
2023/05/16 12:27:00;;;;;;;9.00;3.10;;;14.60;89.40;;;;;;5012337;28;20034;-51
2023/05/16 12:29:49;;;;;;;12.05;3.40;;;14.60;90.10;;;;;;5012656;28;20025;-50
2023/05/16 12:32:38;;;;;;;9.27;3.35;;;14.90;89.00;;;;;;5011745;28;20030;-52
2023/05/16 12:35:32;;;;;;;12.38;3.38;;;14.80;89.00;;;;;;5012862;28;20022;-50
2023/05/16 12:38:19;;;;;;;16.05;3.53;;;14.70;88.10;;;;;;5012910;28;20026;-50
2023/05/16 12:41:05;;;;;;;8.43;3.92;;;14.80;89.40;;;;;;5002932;28;20042;-50
2023/05/16 12:44:18;;;;;;;8.15;4.07;;;14.70;90.00;;;;;;4992357;28;20444;-51
2023/05/16 12:47:11;;;;;;;8.07;3.42;;;14.80;88.80;;;;;;5011153;28;20026;-52
2023/05/16 12:50:00;;;;;;;8.40;2.90;;;14.70;86.80;;;;;;5011644;28;20407;-54
2023/05/16 12:52:48;;;;;;;16.88;3.50;;;14.60;83.60;;;;;;5028965;28;20028;-50
2023/05/16 12:55:34;;;;;;;8.07;2.65;;;14.80;84.00;;;;;;5009998;28;20028;-55
2023/05/16 12:58:20;;;;;;;8.38;2.88;;;14.70;85.40;;;;;;5011034;28;20041;-52
2023/05/16 13:01:07;;;;;;;9.50;3.05;;;14.60;84.60;;;;;;5011044;28;20113;-51
2023/05/16 13:03:53;;;;;;;10.23;3.40;;;14.60;82.40;;;;;;5009954;28;20026;-49
2023/05/16 13:06:39;;;;;;;10.50;2.85;;;14.90;82.90;;;;;;5012850;28;20049;-49
2023/05/16 13:09:25;;;;;;;8.32;3.38;;;14.90;83.60;;;;;;5013251;28;20029;-53
2023/05/16 13:12:12;;;;;;;7.45;2.70;;;15.30;82.70;;;;;;5012354;28;20072;-48
2023/05/16 13:14:58;;;;;;;6.93;3.00;;;15.40;82.80;;;;;;5012297;28;20034;-50
2023/05/16 13:17:45;;;;;;;11.85;3.92;;;15.70;83.00;;;;;;5011374;28;20026;-46
2023/05/16 13:20:31;;;;;;;8.95;3.22;;;15.80;83.20;;;;;;5011516;28;20410;-55
2023/05/16 13:23:17;;;;;;;9.80;3.72;;;15.80;83.10;;;;;;5011591;28;20049;-52
2023/05/16 13:26:04;;;;;;;11.50;3.80;;;15.80;84.30;;;;;;5011013;28;20026;-52
2023/05/16 13:28:51;;;;;;;10.70;3.67;;;16.00;84.10;;;;;;5010534;28;20026;-50
2023/05/16 13:31:37;;;;;;;8.82;3.25;;;15.80;81.40;;;;;;5011578;28;20495;-51
2023/05/16 13:34:23;;;;;;;8.80;3.42;;;15.70;80.90;;;;;;5011047;28;20487;-49
2023/05/16 13:37:09;;;;;;;9.85;3.42;;;15.70;77.00;;;;;;5006022;28;20486;-51
2023/05/16 13:39:55;;;;;;;5.95;2.90;;;15.70;79.60;;;;;;5011948;28;20030;-47
2023/05/16 13:42:41;;;;;;;10.23;3.25;;;15.70;79.50;;;;;;5013498;28;20076;-46
2023/05/16 13:45:28;;;;;;;8.88;3.53;;;15.80;79.80;;;;;;5011469;28;20176;-49
2023/05/16 13:48:14;;;;;;;9.70;3.13;;;16.00;78.60;;;;;;5011107;28;20022;-51
2023/05/16 13:51:00;;;;;;;6.55;2.65;;;16.20;77.40;;;;;;5011312;28;20026;-48
2023/05/16 13:53:46;;;;;;;6.05;3.10;;;16.20;76.50;;;;;;5010656;28;20036;-46
2023/05/16 13:56:31;;;;;;;8.70;2.80;;;16.30;77.50;;;;;;5008625;28;20089;-49
2023/05/16 13:59:17;;;;;;;8.15;2.50;;;16.20;76.20;;;;;;5002109;28;20030;-47
2023/05/16 14:02:04;;;;;;;6.80;2.78;;;16.20;77.30;;;;;;5011507;28;20406;-48
2023/05/16 14:04:50;;;;;;;7.80;2.75;;;16.40;76.90;;;;;;5004262;28;20045;-53
2023/05/16 14:07:36;;;;;;;7.55;2.70;;;16.50;74.90;;;;;;5008880;28;20030;-45
2023/05/16 14:10:22;;;;;;;11.13;3.00;;;16.80;73.70;;;;;;5011652;28;20455;-46
2023/05/16 14:13:08;;;;;;;10.93;3.40;;;17.00;74.10;;;;;;5006473;28;20414;-47
2023/05/16 14:15:54;;;;;;;8.30;3.15;;;17.10;73.90;;;;;;4991576;28;20041;-46
2023/05/16 14:18:40;;;;;;;7.18;2.33;;;17.20;73.10;;;;;;4991816;28;20034;-50
2023/05/16 14:21:26;;;;;;;5.03;3.00;;;17.10;74.30;;;;;;5008057;28;20065;-51